Current Weather

Kirsch Municipal Airport

Kirsch Municipal Airport, Michigan (KIRS)

Report from: Thursday, May 19, 2022 1:55 PM EDT
Current time: Thursday, May 19, 2022 2:04 PM EDT

Nearby weather
Weather history
Weather forecast

Temperature22.3°C (72.1°F)
Dew point16.9°C (62.4°F)
Winds 11 kts (5.7 m/s, 12.7 mph) Southwest (230°)
Wind gusts 17 kts (8.7 m/s, 19.6 mph)
Visibility7 mi. (11.3 km)
Clouds Scattered clouds 2,500 ft. (762 m)
Altimeter29.69 in.Hg (1005 mB)
Relative humidity72 %
Density altitude1,379 ft. (420 m)
Remarks Fully automated report
Automated weather observing station with precipitation discriminator
Flight conditions Visual Meteorological Conditions
Raw dataKIRS 191755Z AUTO 23011G17KT 7SM SCT025 22/17 A2969 RMK AO2 T02230169 10224 20115
An error has occurred. This application may no longer respond until reloaded. Reload 🗙